ΕΜΥ, Εθνική Μετεωρολογική Υπηρεσία - Δελτία Καιρού, Προγνώσεις

ΑΕΡΟΝΑΥΤΙΛΙΑ

GREEK AIRPORTS CODES

LGZA 021850Z 15017KT 9999 FEW012 FEW016CB BKN018 BKN070 17/12 Q1016=

EUROPEAN AIRPORTS CODES